Spofford, New Hampshire
Current Conditions -  °F | °C
As of 10:35 AM on Monday 24 Nov 2014 (Local Time) from KEEN Reporting Station
Overcast Overcast  
Wind Chill: 63°   Ceiling: 1900
Heat Index: 63°   Visibility: 10mi
Dew Point: 61°   Wind: 15mph
Humidity: 94%   Direction: 180°S
Pressure: 29.63"   Gusts: 21mph
Location:  42.91°N, 72.42°W
Report Text: KEEN 241535Z AUTO 18013G18KT 10SM BKN019 BKN046 OVC075 17/16 A2963 RMK AO1
Loading
Personal Weather Stations






























Interactive Weather Map New forecast layout! Learn more

10-Day Weather Forecast

Advertisements
Track Severe Weather on mobile